createdAt,value
2022-12-19T00:00:17.323Z,32.70
2022-12-19T00:01:17.349Z,31.00
2022-12-19T00:02:17.413Z,34.50
2022-12-19T00:03:17.387Z,33.70
2022-12-19T00:04:17.218Z,33.80
2022-12-19T00:05:17.192Z,34.60
2022-12-19T00:06:17.173Z,34.30
2022-12-19T00:07:17.134Z,33.30
2022-12-19T00:08:18.037Z,31.90
2022-12-19T00:09:17.080Z,36.00
2022-12-19T00:10:17.051Z,33.20
2022-12-19T00:11:17.033Z,35.10
2022-12-19T00:12:19.287Z,34.30
2022-12-19T00:13:16.973Z,33.90
2022-12-19T00:14:16.944Z,33.00
2022-12-19T00:15:16.924Z,33.70
2022-12-19T00:16:17.719Z,33.10
2022-12-19T00:17:16.881Z,33.20
2022-12-19T00:18:16.845Z,34.40
2022-12-19T00:19:16.821Z,33.00
2022-12-19T00:20:18.625Z,34.10
2022-12-19T00:21:16.766Z,31.90
2022-12-19T00:22:16.736Z,32.50
2022-12-19T00:23:16.711Z,35.00
2022-12-19T00:24:21.215Z,32.80
2022-12-19T00:25:16.663Z,37.40
2022-12-19T00:26:16.626Z,34.50
2022-12-19T00:27:16.612Z,32.50
2022-12-19T00:28:16.576Z,34.00
2022-12-19T00:29:16.552Z,32.10
2022-12-19T00:30:16.521Z,35.00
2022-12-19T00:31:16.537Z,32.70
2022-12-19T00:32:16.466Z,35.20
2022-12-19T00:33:16.447Z,32.70
2022-12-19T00:34:16.412Z,36.40
2022-12-19T00:35:16.389Z,31.70
2022-12-19T00:36:16.902Z,33.70
2022-12-19T00:37:16.338Z,35.50
2022-12-19T00:38:16.305Z,35.20
2022-12-19T00:39:16.284Z,32.20
2022-12-19T00:40:16.373Z,33.30
2022-12-19T00:41:16.232Z,33.00
2022-12-19T00:42:16.201Z,33.40
2022-12-19T00:43:16.179Z,30.80
2022-12-19T00:44:16.153Z,32.90
2022-12-19T00:45:16.123Z,30.80
2022-12-19T00:46:16.146Z,34.50
2022-12-19T00:47:16.069Z,30.50
2022-12-19T00:48:16.058Z,32.70
2022-12-19T00:49:16.014Z,30.70
2022-12-19T00:50:15.989Z,32.00
2022-12-19T00:51:15.964Z,31.10
2022-12-19T00:52:15.933Z,31.70
2022-12-19T00:53:15.908Z,33.70
2022-12-19T00:54:15.881Z,31.60
2022-12-19T00:55:18.990Z,34.60
2022-12-19T00:56:15.943Z,33.70
2022-12-19T00:57:15.805Z,34.90
2022-12-19T00:58:15.776Z,32.30
2022-12-19T00:59:16.484Z,32.30
2022-12-19T01:00:15.719Z,30.20
2022-12-19T01:01:15.743Z,35.30
2022-12-19T01:02:15.775Z,34.80
2022-12-19T01:03:15.690Z,33.90
2022-12-19T01:04:34.366Z,33.00
2022-12-19T01:05:15.593Z,33.30
2022-12-19T01:06:15.560Z,31.90
2022-12-19T01:07:15.538Z,32.80
2022-12-19T01:08:15.505Z,31.60
2022-12-19T01:09:15.483Z,32.10
2022-12-19T01:10:15.456Z,32.40
2022-12-19T01:11:15.428Z,32.40
2022-12-19T01:12:15.515Z,34.00
2022-12-19T01:13:15.372Z,33.60
2022-12-19T01:14:22.267Z,33.90
2022-12-19T01:15:15.317Z,32.00
2022-12-19T01:16:15.386Z,34.00
2022-12-19T01:17:15.270Z,35.40
2022-12-19T01:18:15.244Z,32.40
2022-12-19T01:19:15.221Z,32.70
2022-12-19T01:20:15.199Z,34.90
2022-12-19T01:21:15.166Z,33.50
2022-12-19T01:22:15.132Z,30.90
2022-12-19T01:23:15.111Z,34.60
2022-12-19T01:24:18.949Z,33.90
2022-12-19T01:25:15.058Z,32.80
2022-12-19T01:26:15.024Z,33.40
2022-12-19T01:27:15.003Z,33.70
2022-12-19T01:28:15.084Z,31.60
2022-12-19T01:29:14.953Z,31.80
2022-12-19T01:30:14.949Z,31.30
2022-12-19T01:31:14.920Z,31.20
2022-12-19T01:32:14.873Z,32.90
2022-12-19T01:33:14.849Z,32.30
2022-12-19T01:34:14.811Z,37.90
2022-12-19T01:35:22.088Z,33.10
2022-12-19T01:36:14.759Z,33.40
2022-12-19T01:37:14.740Z,32.80
2022-12-19T01:38:14.703Z,33.60
2022-12-19T01:39:14.675Z,35.30
2022-12-19T01:40:14.653Z,32.10
2022-12-19T01:41:14.628Z,32.20
2022-12-19T01:42:14.597Z,33.60
2022-12-19T01:43:14.574Z,34.10
2022-12-19T01:44:14.668Z,32.20
2022-12-19T01:45:14.522Z,32.90
2022-12-19T01:46:14.516Z,35.00
2022-12-19T01:47:14.465Z,31.70
2022-12-19T01:48:14.438Z,33.10
2022-12-19T01:49:14.419Z,34.10
2022-12-19T01:50:14.388Z,31.80
2022-12-19T01:51:14.362Z,34.10
2022-12-19T01:52:19.509Z,31.60
2022-12-19T01:53:14.312Z,34.30
2022-12-19T01:54:14.280Z,36.10
2022-12-19T01:55:14.256Z,34.00
2022-12-19T01:56:14.196Z,32.60
2022-12-19T01:57:14.187Z,35.20
2022-12-19T01:58:14.143Z,32.60
2022-12-19T01:59:14.122Z,34.50
2022-12-19T02:00:14.211Z,32.00
2022-12-19T02:01:14.164Z,34.90
2022-12-19T02:02:14.148Z,31.50
2022-12-19T02:03:14.046Z,35.00
2022-12-19T02:04:13.988Z,31.20
2022-12-19T02:05:13.955Z,34.60
2022-12-19T02:06:13.941Z,35.60
2022-12-19T02:07:15.894Z,32.00
2022-12-19T02:08:13.980Z,33.20
2022-12-19T02:09:13.854Z,31.20
2022-12-19T02:10:13.851Z,34.20
2022-12-19T02:11:13.800Z,33.20
2022-12-19T02:12:13.778Z,31.90
2022-12-19T02:13:13.747Z,32.40
2022-12-19T02:14:13.725Z,31.80
2022-12-19T02:15:13.692Z,28.80
2022-12-19T02:16:13.838Z,29.60
2022-12-19T02:17:13.647Z,32.10
2022-12-19T02:18:13.621Z,30.30
2022-12-19T02:19:13.587Z,32.20
2022-12-19T02:20:13.598Z,32.20
2022-12-19T02:21:13.542Z,32.30
2022-12-19T02:22:18.787Z,31.30
2022-12-19T02:23:13.484Z,34.30
2022-12-19T02:24:13.463Z,32.80
2022-12-19T02:25:13.451Z,33.60
2022-12-19T02:26:13.418Z,32.70
2022-12-19T02:27:13.392Z,34.60
2022-12-19T02:28:13.365Z,30.20
2022-12-19T02:29:13.341Z,33.70
2022-12-19T02:30:13.336Z,33.70
2022-12-19T02:31:17.358Z,30.70
2022-12-19T02:32:13.374Z,32.10
2022-12-19T02:33:13.242Z,35.30
2022-12-19T02:34:13.206Z,32.90
2022-12-19T02:35:13.175Z,30.20
2022-12-19T02:36:13.159Z,33.30
2022-12-19T02:37:13.129Z,33.50
2022-12-19T02:38:13.407Z,36.70
2022-12-19T02:39:13.071Z,33.00
2022-12-19T02:40:13.061Z,32.10
2022-12-19T02:41:13.024Z,31.90
2022-12-19T02:42:13.002Z,33.20
2022-12-19T02:43:12.971Z,32.40
2022-12-19T02:44:12.950Z,34.30
2022-12-19T02:45:12.922Z,34.00
2022-12-19T02:46:12.929Z,29.30
2022-12-19T02:47:12.874Z,34.70
2022-12-19T02:48:16.236Z,32.10
2022-12-19T02:49:12.820Z,32.30
2022-12-19T02:50:12.790Z,34.70
2022-12-19T02:51:12.764Z,31.60
2022-12-19T02:52:12.747Z,30.70
2022-12-19T02:53:12.711Z,31.60
2022-12-19T02:54:12.686Z,32.40
2022-12-19T02:55:12.663Z,34.50
2022-12-19T02:56:12.642Z,36.10
2022-12-19T02:57:12.608Z,31.40
2022-12-19T02:58:12.587Z,32.70
2022-12-19T02:59:12.564Z,32.30
2022-12-19T03:00:12.551Z,33.50
2022-12-19T03:01:12.566Z,32.00
2022-12-19T03:02:12.644Z,32.60
2022-12-19T03:03:12.597Z,32.00
2022-12-19T03:04:12.585Z,33.50
2022-12-19T03:05:12.404Z,30.90
2022-12-19T03:06:12.381Z,32.40
2022-12-19T03:07:12.351Z,30.00
2022-12-19T03:08:12.328Z,32.00
2022-12-19T03:09:12.299Z,31.50
2022-12-19T03:10:12.281Z,33.10
2022-12-19T03:11:12.250Z,36.10
2022-12-19T03:12:17.176Z,31.30
2022-12-19T03:13:12.203Z,31.40
2022-12-19T03:14:12.207Z,31.40
2022-12-19T03:15:12.152Z,29.70
2022-12-19T03:16:12.141Z,33.40
2022-12-19T03:17:12.092Z,31.00
2022-12-19T03:18:12.076Z,30.10
2022-12-19T03:19:12.044Z,32.20
2022-12-19T03:20:12.140Z,31.80
2022-12-19T03:21:11.991Z,31.20
2022-12-19T03:22:11.970Z,30.60
2022-12-19T03:23:11.950Z,31.40
2022-12-19T03:24:11.918Z,31.70
2022-12-19T03:25:11.891Z,31.50
2022-12-19T03:26:11.875Z,32.30
2022-12-19T03:27:11.845Z,30.50
2022-12-19T03:28:11.814Z,33.40
2022-12-19T03:29:11.795Z,29.40
2022-12-19T03:30:11.764Z,29.20
2022-12-19T03:31:11.772Z,33.00
2022-12-19T03:32:11.722Z,29.80
2022-12-19T03:33:11.685Z,31.70
2022-12-19T03:34:11.672Z,31.00
2022-12-19T03:35:11.645Z,29.00
2022-12-19T03:36:11.728Z,32.40
2022-12-19T03:37:11.585Z,30.30
2022-12-19T03:38:11.559Z,30.90
2022-12-19T03:39:11.531Z,33.50
2022-12-19T03:40:11.509Z,32.70
2022-12-19T03:41:11.491Z,32.30
2022-12-19T03:42:11.458Z,33.10
2022-12-19T03:43:11.938Z,29.60
2022-12-19T03:44:11.411Z,29.50
2022-12-19T03:45:11.400Z,32.00
2022-12-19T03:46:11.423Z,33.60
2022-12-19T03:47:11.324Z,31.00
2022-12-19T03:48:11.304Z,29.80
2022-12-19T03:49:11.280Z,29.30
2022-12-19T03:50:11.268Z,30.90
2022-12-19T03:51:11.221Z,30.90
2022-12-19T03:52:11.318Z,31.50
2022-12-19T03:53:11.174Z,31.90
2022-12-19T03:54:11.152Z,29.70
2022-12-19T03:55:11.126Z,29.40
2022-12-19T03:56:11.094Z,29.80
2022-12-19T03:57:11.078Z,29.30
2022-12-19T03:58:11.048Z,32.30
2022-12-19T03:59:11.016Z,31.80
2022-12-19T04:00:10.995Z,31.00
2022-12-19T04:01:11.029Z,30.70
2022-12-19T04:02:11.020Z,30.90
2022-12-19T04:03:10.957Z,29.30
2022-12-19T04:04:10.918Z,33.40
2022-12-19T04:05:10.866Z,30.70
2022-12-19T04:06:10.845Z,29.60
2022-12-19T04:07:10.809Z,32.30
2022-12-19T04:08:10.816Z,29.40
2022-12-19T04:09:10.763Z,30.10
2022-12-19T04:10:10.738Z,32.40
2022-12-19T04:11:10.710Z,33.20
2022-12-19T04:12:10.694Z,30.10
2022-12-19T04:13:10.660Z,29.30
2022-12-19T04:14:10.637Z,31.30
2022-12-19T04:15:10.604Z,29.60
2022-12-19T04:16:10.674Z,32.40
2022-12-19T04:17:10.559Z,31.30
2022-12-19T04:18:10.542Z,29.00
2022-12-19T04:19:10.508Z,29.60
2022-12-19T04:20:10.483Z,32.20
2022-12-19T04:21:10.467Z,30.50
2022-12-19T04:22:10.431Z,27.90
2022-12-19T04:23:10.408Z,32.40
2022-12-19T04:24:10.507Z,32.90
2022-12-19T04:25:10.357Z,33.10
2022-12-19T04:26:10.331Z,32.70
2022-12-19T04:27:10.301Z,30.60
2022-12-19T04:28:10.279Z,31.70
2022-12-19T04:29:10.252Z,31.10
2022-12-19T04:30:10.228Z,31.70
2022-12-19T04:31:10.289Z,32.10
2022-12-19T04:32:10.193Z,28.20
2022-12-19T04:33:10.149Z,34.30
2022-12-19T04:34:10.127Z,29.10
2022-12-19T04:35:10.117Z,32.50
2022-12-19T04:36:10.093Z,30.00
2022-12-19T04:37:10.051Z,33.60
2022-12-19T04:38:10.033Z,32.00
2022-12-19T04:39:09.999Z,33.00
2022-12-19T04:40:10.109Z,35.90
2022-12-19T04:41:09.948Z,31.70
2022-12-19T04:42:09.920Z,31.30
2022-12-19T04:43:09.900Z,31.40
2022-12-19T04:44:09.873Z,30.40
2022-12-19T04:45:09.844Z,31.20
2022-12-19T04:46:09.879Z,33.90
2022-12-19T04:47:09.788Z,30.30
2022-12-19T04:48:09.775Z,32.60
2022-12-19T04:49:09.734Z,33.70
2022-12-19T04:50:09.714Z,29.70
2022-12-19T04:51:09.712Z,29.60
2022-12-19T04:52:09.668Z,33.80
2022-12-19T04:53:09.645Z,30.80
2022-12-19T04:54:09.616Z,29.70
2022-12-19T04:55:09.591Z,31.60
2022-12-19T04:56:09.684Z,33.00
2022-12-19T04:57:09.553Z,32.50
2022-12-19T04:58:09.522Z,32.70
2022-12-19T04:59:09.487Z,33.20
2022-12-19T05:00:09.467Z,30.60
2022-12-19T05:01:09.711Z,29.20
2022-12-19T05:02:09.598Z,33.60
2022-12-19T05:03:09.419Z,31.30
2022-12-19T05:04:09.423Z,29.80
2022-12-19T05:05:09.332Z,30.90
2022-12-19T05:06:09.310Z,29.00
2022-12-19T05:07:09.289Z,31.30
2022-12-19T05:08:09.267Z,31.00
2022-12-19T05:09:09.234Z,30.00
2022-12-19T05:10:09.211Z,29.60
2022-12-19T05:11:10.646Z,31.30
2022-12-19T05:12:09.276Z,30.30
2022-12-19T05:13:09.127Z,34.90
2022-12-19T05:14:09.120Z,32.10
2022-12-19T05:15:09.084Z,32.00
2022-12-19T05:16:09.139Z,31.10
2022-12-19T05:17:09.030Z,30.60
2022-12-19T05:18:09.010Z,33.80
2022-12-19T05:19:08.977Z,30.40
2022-12-19T05:20:08.957Z,35.30
2022-12-19T05:21:08.929Z,32.60
2022-12-19T05:22:08.919Z,30.50
2022-12-19T05:23:16.196Z,30.80
2022-12-19T05:24:08.855Z,31.90
2022-12-19T05:25:08.847Z,32.70
2022-12-19T05:26:08.814Z,28.80
2022-12-19T05:27:08.780Z,29.60
2022-12-19T05:28:08.877Z,33.10
2022-12-19T05:29:08.726Z,32.20
2022-12-19T05:30:08.704Z,34.70
2022-12-19T05:31:08.711Z,32.80
2022-12-19T05:32:08.651Z,31.00
2022-12-19T05:33:08.624Z,30.90
2022-12-19T05:34:08.599Z,32.00
2022-12-19T05:35:08.581Z,32.40
2022-12-19T05:36:08.602Z,32.50
2022-12-19T05:37:08.525Z,30.80
2022-12-19T05:38:08.497Z,30.50
2022-12-19T05:39:08.470Z,30.40
2022-12-19T05:40:08.451Z,29.70
2022-12-19T05:41:08.421Z,28.90
2022-12-19T05:42:12.153Z,31.40
2022-12-19T05:43:08.371Z,30.60
2022-12-19T05:44:08.464Z,30.40
2022-12-19T05:45:08.319Z,29.60
2022-12-19T05:46:08.381Z,32.60
2022-12-19T05:47:08.270Z,30.50
2022-12-19T05:48:09.411Z,28.40
2022-12-19T05:49:08.235Z,30.90
2022-12-19T05:50:08.199Z,30.50
2022-12-19T05:51:08.180Z,32.20
2022-12-19T05:52:08.144Z,29.40
2022-12-19T05:53:08.120Z,28.40
2022-12-19T05:54:08.100Z,29.50
2022-12-19T05:55:08.069Z,28.40
2022-12-19T05:56:08.546Z,29.20
2022-12-19T05:57:08.012Z,29.20
2022-12-19T05:58:07.994Z,30.20
2022-12-19T05:59:07.979Z,29.80
2022-12-19T06:00:08.062Z,31.40
2022-12-19T06:01:07.919Z,31.00
2022-12-19T06:02:07.964Z,29.40
2022-12-19T06:03:08.002Z,29.60
2022-12-19T06:04:07.848Z,31.90
2022-12-19T06:05:07.834Z,32.70
2022-12-19T06:06:07.800Z,30.00
2022-12-19T06:07:07.761Z,31.70
2022-12-19T06:08:07.749Z,31.70
2022-12-19T06:09:07.715Z,33.90
2022-12-19T06:10:07.694Z,32.20
2022-12-19T06:11:07.671Z,32.60
2022-12-19T06:12:07.643Z,33.00
2022-12-19T06:13:07.630Z,31.00
2022-12-19T06:14:07.601Z,32.30
2022-12-19T06:15:07.570Z,31.60
2022-12-19T06:16:07.711Z,32.80
2022-12-19T06:17:07.523Z,34.50
2022-12-19T06:18:07.489Z,36.30
2022-12-19T06:19:07.464Z,34.60
2022-12-19T06:20:07.447Z,32.60
2022-12-19T06:21:07.418Z,38.20
2022-12-19T06:22:07.393Z,38.70
2022-12-19T06:23:07.375Z,34.50
2022-12-19T06:24:07.338Z,34.50
2022-12-19T06:25:07.313Z,34.80
2022-12-19T06:26:07.290Z,34.30
2022-12-19T06:27:07.266Z,34.00
2022-12-19T06:28:07.235Z,42.20
2022-12-19T06:29:07.217Z,36.60
2022-12-19T06:30:07.189Z,35.30
2022-12-19T06:31:07.226Z,37.80
2022-12-19T06:32:07.262Z,38.30
2022-12-19T06:33:07.117Z,33.10
2022-12-19T06:34:07.094Z,40.00
2022-12-19T06:35:07.063Z,40.10
2022-12-19T06:36:07.045Z,37.20
2022-12-19T06:37:08.437Z,42.80
2022-12-19T06:38:07.002Z,40.40
2022-12-19T06:39:06.970Z,39.00
2022-12-19T06:40:06.953Z,40.20
2022-12-19T06:41:06.914Z,37.70
2022-12-19T06:42:06.887Z,41.70
2022-12-19T06:43:06.865Z,41.70
2022-12-19T06:44:06.853Z,41.80
2022-12-19T06:45:06.824Z,42.60
2022-12-19T06:46:06.839Z,42.50
2022-12-19T06:47:06.773Z,38.90
2022-12-19T06:48:06.902Z,42.20
2022-12-19T06:49:06.722Z,42.70
2022-12-19T06:50:06.688Z,39.70
2022-12-19T06:51:06.663Z,41.00
2022-12-19T06:52:09.262Z,48.70
2022-12-19T06:53:06.637Z,42.50
2022-12-19T06:54:06.599Z,41.90
2022-12-19T06:55:06.564Z,44.50
2022-12-19T06:56:06.548Z,45.10
2022-12-19T06:57:06.534Z,41.30
2022-12-19T06:58:06.489Z,41.20
2022-12-19T06:59:06.482Z,45.10
2022-12-19T07:00:06.443Z,45.20
2022-12-19T07:01:06.561Z,42.40
2022-12-19T07:02:06.509Z,45.90
2022-12-19T07:03:06.484Z,40.90
2022-12-19T07:04:06.472Z,44.30
2022-12-19T07:05:06.330Z,43.60
2022-12-19T07:06:06.304Z,48.00
2022-12-19T07:07:06.270Z,42.20
2022-12-19T07:08:06.249Z,44.10
2022-12-19T07:09:06.235Z,43.90
2022-12-19T07:10:06.202Z,45.50
2022-12-19T07:11:06.270Z,46.80
2022-12-19T07:12:06.147Z,48.60
2022-12-19T07:13:06.128Z,43.50
2022-12-19T07:14:06.098Z,45.90
2022-12-19T07:15:06.076Z,42.30
2022-12-19T07:16:06.101Z,40.10
2022-12-19T07:17:06.025Z,41.20
2022-12-19T07:18:05.999Z,41.40
2022-12-19T07:19:05.977Z,41.80
2022-12-19T07:20:06.069Z,44.70
2022-12-19T07:21:05.927Z,41.00
2022-12-19T07:22:05.899Z,47.20
2022-12-19T07:23:05.877Z,43.30
2022-12-19T07:24:05.857Z,44.90
2022-12-19T07:25:05.840Z,45.40
2022-12-19T07:26:05.805Z,42.60
2022-12-19T07:27:05.782Z,43.10
2022-12-19T07:28:05.763Z,43.60
2022-12-19T07:29:05.753Z,44.10
2022-12-19T07:30:05.708Z,41.70
2022-12-19T07:31:05.691Z,46.00
2022-12-19T07:32:05.694Z,39.30
2022-12-19T07:33:05.655Z,43.70
2022-12-19T07:34:05.616Z,44.40
2022-12-19T07:35:05.599Z,43.80
2022-12-19T07:36:05.679Z,43.20
2022-12-19T07:37:05.540Z,42.40
2022-12-19T07:38:05.532Z,41.80
2022-12-19T07:39:05.485Z,44.00
2022-12-19T07:40:05.456Z,42.40
2022-12-19T07:41:05.438Z,43.50
2022-12-19T07:42:05.444Z,47.30
2022-12-19T07:43:05.386Z,39.40
2022-12-19T07:44:05.368Z,38.90
2022-12-19T07:45:05.342Z,40.50
2022-12-19T07:46:05.477Z,42.40
2022-12-19T07:47:05.297Z,44.60
2022-12-19T07:48:05.267Z,39.50
2022-12-19T07:49:05.250Z,40.80
2022-12-19T07:50:05.218Z,41.60
2022-12-19T07:51:05.190Z,40.10
2022-12-19T07:52:05.287Z,41.80
2022-12-19T07:53:05.143Z,39.40
2022-12-19T07:54:05.115Z,39.10
2022-12-19T07:55:05.096Z,40.40
2022-12-19T07:56:05.069Z,39.80
2022-12-19T07:57:05.045Z,38.30
2022-12-19T07:58:05.028Z,37.20
2022-12-19T07:59:04.996Z,41.40
2022-12-19T08:00:04.974Z,35.70
2022-12-19T08:01:04.954Z,36.10
2022-12-19T08:02:05.079Z,36.00
2022-12-19T08:03:04.966Z,34.60
2022-12-19T08:04:04.876Z,35.00
2022-12-19T08:05:04.916Z,37.60
2022-12-19T08:06:04.829Z,33.60
2022-12-19T08:07:04.801Z,37.90
2022-12-19T08:08:04.901Z,38.40
2022-12-19T08:09:04.771Z,35.70
2022-12-19T08:10:04.754Z,37.70
2022-12-19T08:11:04.711Z,38.70
2022-12-19T08:12:04.691Z,41.20
2022-12-19T08:13:04.675Z,37.60
2022-12-19T08:14:04.633Z,36.80
2022-12-19T08:15:04.616Z,40.90
2022-12-19T08:16:04.588Z,37.70
2022-12-19T08:17:20.142Z,34.40
2022-12-19T08:18:04.544Z,35.40
2022-12-19T08:19:04.529Z,35.60
2022-12-19T08:20:04.488Z,36.80
2022-12-19T08:21:04.481Z,36.20
2022-12-19T08:22:04.441Z,35.10
2022-12-19T08:23:04.418Z,35.80
2022-12-19T08:24:04.508Z,33.10
2022-12-19T08:25:04.373Z,36.20
2022-12-19T08:26:04.343Z,32.50
2022-12-19T08:27:04.356Z,33.80
2022-12-19T08:28:04.311Z,28.10
2022-12-19T08:29:04.277Z,32.10
2022-12-19T08:30:04.256Z,30.20
2022-12-19T08:31:04.244Z,29.50
2022-12-19T08:32:04.207Z,32.90
2022-12-19T08:33:04.174Z,29.50
2022-12-19T08:34:04.151Z,28.90
2022-12-19T08:35:04.127Z,25.00
2022-12-19T08:36:04.108Z,28.80
2022-12-19T08:37:04.090Z,26.60
2022-12-19T08:38:04.052Z,26.60
2022-12-19T08:39:04.037Z,24.00
2022-12-19T08:40:04.135Z,25.50
2022-12-19T08:41:03.994Z,25.90
2022-12-19T08:42:03.974Z,29.30
2022-12-19T08:43:03.941Z,27.90
2022-12-19T08:44:03.915Z,26.10
2022-12-19T08:45:03.895Z,27.90
2022-12-19T08:46:03.944Z,27.70
2022-12-19T08:47:03.840Z,27.50
2022-12-19T08:48:03.824Z,28.40
2022-12-19T08:49:03.789Z,27.60
2022-12-19T08:50:03.767Z,26.10
2022-12-19T08:51:03.759Z,26.50
2022-12-19T08:52:03.725Z,27.00
2022-12-19T08:53:03.704Z,26.90
2022-12-19T08:54:03.676Z,26.50
2022-12-19T08:55:03.651Z,26.30
2022-12-19T08:56:03.786Z,25.80
2022-12-19T08:57:03.617Z,25.50
2022-12-19T08:58:03.580Z,25.60
2022-12-19T08:59:03.564Z,23.50
2022-12-19T09:00:03.532Z,28.20
2022-12-19T09:01:05.724Z,23.40
2022-12-19T09:02:03.731Z,29.40
2022-12-19T09:03:03.809Z,25.00
2022-12-19T09:05:10.762Z,23.00
2022-12-19T09:06:00.417Z,24.90
2022-12-19T09:06:08.255Z,24.10
2022-12-19T09:07:03.367Z,22.80
2022-12-19T09:08:03.348Z,25.20
2022-12-19T09:09:03.320Z,23.50
2022-12-19T09:10:03.297Z,24.90
2022-12-19T09:11:03.268Z,22.80
2022-12-19T09:12:03.409Z,21.60
2022-12-19T09:13:03.223Z,22.00
2022-12-19T09:14:03.205Z,25.40
2022-12-19T09:15:03.181Z,22.10
2022-12-19T09:16:03.163Z,21.70
2022-12-19T09:17:03.937Z,25.30
2022-12-19T09:18:03.107Z,22.20
2022-12-19T09:19:03.100Z,22.10
2022-12-19T09:20:03.069Z,23.20
2022-12-19T09:21:03.042Z,22.70
2022-12-19T09:22:03.025Z,22.70
2022-12-19T09:23:02.990Z,23.10
2022-12-19T09:24:07.679Z,22.30
2022-12-19T09:25:02.949Z,21.60
2022-12-19T09:26:02.919Z,23.10
2022-12-19T09:27:02.895Z,19.90
2022-12-19T09:28:26.837Z,22.60
2022-12-19T09:29:02.936Z,22.30
2022-12-19T09:30:02.864Z,20.40
2022-12-19T09:31:02.877Z,20.50
2022-12-19T09:32:02.785Z,21.20
2022-12-19T09:33:02.766Z,22.40
2022-12-19T09:34:02.731Z,20.10
2022-12-19T09:35:02.714Z,21.80
2022-12-19T09:36:02.703Z,23.90
2022-12-19T09:37:02.662Z,21.80
2022-12-19T09:38:02.637Z,22.00
2022-12-19T09:39:02.638Z,23.60
2022-12-19T09:40:02.615Z,19.90
2022-12-19T09:41:02.572Z,21.70
2022-12-19T09:42:02.541Z,21.50
2022-12-19T09:43:02.539Z,20.80
2022-12-19T09:44:02.643Z,19.70
2022-12-19T09:45:02.479Z,21.40
2022-12-19T09:46:02.538Z,19.90
2022-12-19T09:47:02.434Z,20.20
2022-12-19T09:48:02.492Z,20.30
2022-12-19T09:49:02.384Z,19.30
2022-12-19T09:50:02.392Z,21.10
2022-12-19T09:51:09.601Z,21.70
2022-12-19T09:52:02.307Z,21.80
2022-12-19T09:53:02.286Z,21.00
2022-12-19T09:54:02.273Z,19.80
2022-12-19T09:55:02.235Z,21.10
2022-12-19T09:56:02.220Z,19.00
2022-12-19T09:57:02.195Z,20.00
2022-12-19T09:58:04.780Z,20.10
2022-12-19T09:59:02.143Z,21.20
2022-12-19T10:00:02.249Z,22.20
2022-12-19T10:01:02.115Z,21.70
2022-12-19T10:02:02.164Z,20.90
2022-12-19T10:03:02.280Z,21.90
2022-12-19T10:04:02.060Z,20.80
2022-12-19T10:05:19.727Z,19.60
2022-12-19T10:06:57.260Z,20.60
2022-12-19T10:07:18.727Z,20.50
2022-12-19T10:08:10.354Z,21.50
2022-12-19T10:10:25.501Z,20.30
2022-12-19T10:12:34.166Z,21.30
2022-12-19T10:12:36.623Z,21.80
2022-12-19T10:12:45.314Z,21.30
2022-12-19T10:13:04.967Z,21.90
2022-12-19T10:14:01.816Z,20.50
2022-12-19T10:15:01.778Z,22.10
2022-12-19T10:16:01.930Z,18.60
2022-12-19T10:17:23.765Z,18.60
2022-12-19T10:18:01.715Z,17.80
2022-12-19T10:19:01.685Z,19.40
2022-12-19T10:20:01.663Z,20.10
2022-12-19T10:21:01.656Z,19.60
2022-12-19T10:22:18.204Z,18.30
2022-12-19T10:23:01.610Z,18.50
2022-12-19T10:24:01.608Z,17.90
2022-12-19T10:25:08.614Z,20.10
2022-12-19T10:26:01.549Z,18.20
2022-12-19T10:27:01.513Z,19.10
2022-12-19T10:28:01.483Z,21.50
2022-12-19T10:29:01.460Z,17.50
2022-12-19T10:30:01.426Z,20.20
2022-12-19T10:31:06.617Z,17.30
2022-12-19T10:32:01.605Z,19.50
2022-12-19T10:33:01.373Z,18.00
2022-12-19T10:34:01.338Z,20.00
2022-12-19T10:35:01.346Z,19.70
2022-12-19T10:36:02.248Z,18.80
2022-12-19T10:37:23.012Z,18.30
2022-12-19T10:38:01.246Z,19.20
2022-12-19T10:39:01.248Z,19.70
2022-12-19T10:40:01.212Z,18.50
2022-12-19T10:41:01.183Z,19.70
2022-12-19T10:42:01.168Z,19.80
2022-12-19T10:43:09.376Z,17.00
2022-12-19T10:44:01.116Z,19.20
2022-12-19T10:45:01.168Z,18.00
2022-12-19T10:46:01.126Z,19.40
2022-12-19T10:47:01.151Z,19.80
2022-12-19T10:48:01.185Z,19.50
2022-12-19T10:49:01.070Z,19.50
2022-12-19T10:50:05.696Z,25.90
2022-12-19T10:51:06.202Z,17.30
2022-12-19T10:52:00.961Z,17.00
2022-12-19T10:53:00.905Z,18.10
2022-12-19T10:54:00.876Z,18.00
2022-12-19T10:55:00.887Z,18.60
2022-12-19T10:56:00.837Z,17.10
2022-12-19T10:57:00.822Z,18.20
2022-12-19T10:58:00.796Z,17.40
2022-12-19T10:59:00.773Z,16.80
2022-12-19T11:00:00.787Z,16.70
2022-12-19T11:01:00.726Z,18.40
2022-12-19T11:02:03.105Z,16.90
2022-12-19T11:03:00.846Z,19.30
2022-12-19T11:04:00.773Z,19.30
2022-12-19T11:05:00.767Z,18.60
2022-12-19T11:06:00.610Z,17.50
2022-12-19T11:07:00.597Z,18.30
2022-12-19T11:08:00.578Z,19.40
2022-12-19T11:09:00.541Z,18.60
2022-12-19T11:11:18.255Z,18.40
2022-12-19T11:12:09.205Z,17.50
2022-12-19T11:15:44.172Z,17.10
2022-12-19T11:17:03.104Z,18.80
2022-12-19T11:18:48.314Z,18.30
2022-12-19T11:19:00.325Z,16.80
2022-12-19T11:20:07.475Z,18.70
2022-12-19T11:24:11.114Z,17.40
2022-12-19T11:28:14.914Z,18.60
2022-12-19T11:29:15.285Z,18.30
2022-12-19T11:29:37.272Z,17.40
2022-12-19T11:29:41.073Z,19.40
2022-12-19T11:29:43.946Z,17.00
2022-12-19T11:29:45.130Z,17.60
2022-12-19T11:29:54.114Z,18.00
2022-12-19T11:30:35.708Z,17.50
2022-12-19T11:30:35.804Z,18.70
2022-12-19T11:30:36.673Z,18.70
2022-12-19T11:30:48.175Z,18.00
2022-12-19T11:30:48.370Z,19.30
2022-12-19T11:31:26.286Z,19.30
2022-12-19T11:33:00.040Z,19.30
2022-12-19T11:33:59.978Z,17.40
2022-12-19T11:34:59.957Z,16.70
2022-12-19T11:36:00.066Z,16.30
2022-12-19T11:36:59.924Z,17.70
2022-12-19T11:37:59.894Z,18.00
2022-12-19T11:38:59.868Z,16.30
2022-12-19T11:39:59.845Z,16.00
2022-12-19T11:40:59.828Z,18.90
2022-12-19T11:41:59.805Z,18.20
2022-12-19T11:43:41.986Z,17.10
2022-12-19T11:43:59.767Z,17.00
2022-12-19T11:44:59.746Z,15.30
2022-12-19T11:45:59.713Z,16.80
2022-12-19T11:46:59.694Z,15.90
2022-12-19T11:47:59.675Z,15.40
2022-12-19T11:48:59.649Z,17.00
2022-12-19T11:49:59.623Z,15.90
2022-12-19T11:50:59.615Z,15.60
2022-12-19T11:51:59.708Z,16.80
2022-12-19T11:53:04.470Z,17.40
2022-12-19T11:53:59.541Z,15.50
2022-12-19T11:54:59.513Z,16.70
2022-12-19T11:55:59.481Z,17.40
2022-12-19T11:56:59.478Z,16.60
2022-12-19T11:57:59.490Z,15.80
2022-12-19T11:58:59.439Z,16.20
2022-12-19T12:00:04.649Z,17.90
2022-12-19T12:00:59.380Z,19.30
2022-12-19T12:01:59.403Z,20.40
2022-12-19T12:02:59.407Z,16.00
2022-12-19T12:04:02.517Z,16.90
2022-12-19T12:04:59.377Z,16.20
2022-12-19T12:05:59.274Z,17.10
2022-12-19T12:07:00.057Z,18.30
2022-12-19T12:08:37.099Z,17.60
2022-12-19T12:11:35.736Z,17.40
2022-12-19T12:13:40.241Z,17.20
2022-12-19T12:16:09.971Z,15.60
2022-12-19T12:16:53.530Z,17.30
2022-12-19T12:19:13.837Z,15.40
2022-12-19T12:24:02.426Z,16.00
2022-12-19T12:25:16.105Z,16.70
2022-12-19T12:26:33.492Z,15.90
2022-12-19T12:27:10.932Z,16.80
2022-12-19T12:30:34.472Z,16.90
2022-12-19T12:31:01.843Z,17.40
2022-12-19T12:31:13.554Z,15.90
2022-12-19T12:31:14.620Z,16.70
2022-12-19T12:31:21.383Z,15.60
2022-12-19T12:31:26.085Z,15.80
2022-12-19T12:31:39.145Z,16.40
2022-12-19T12:31:40.356Z,16.00
2022-12-19T12:31:43.769Z,15.30
2022-12-19T12:31:44.254Z,16.50
2022-12-19T12:31:50.065Z,15.50
2022-12-19T12:32:00.734Z,16.00
2022-12-19T12:32:03.749Z,17.10
2022-12-19T12:32:05.069Z,15.40
2022-12-19T12:35:31.529Z,15.30
2022-12-19T12:35:45.383Z,15.80
2022-12-19T12:35:48.782Z,14.80
2022-12-19T12:35:51.513Z,16.10
2022-12-19T12:38:12.152Z,15.80
2022-12-19T12:38:22.542Z,18.60
2022-12-19T12:39:58.532Z,16.10
2022-12-19T12:40:58.491Z,17.70
2022-12-19T12:41:58.467Z,17.90
2022-12-19T12:42:58.465Z,18.40
2022-12-19T12:43:58.425Z,17.50
2022-12-19T12:44:58.426Z,16.30
2022-12-19T12:45:58.473Z,17.20
2022-12-19T12:46:58.356Z,15.70
2022-12-19T12:47:58.336Z,17.80
2022-12-19T12:48:58.313Z,18.10
2022-12-19T12:49:58.294Z,15.10
2022-12-19T12:50:58.273Z,16.70
2022-12-19T12:51:58.252Z,17.80
2022-12-19T12:52:58.224Z,15.00
2022-12-19T12:53:58.200Z,16.50
2022-12-19T12:54:58.221Z,18.50
2022-12-19T12:55:58.191Z,15.00